sensor_id;sensor_type;location;lat;lon;timestamp;P1;P2;P0
65973;PMS5003;52729;54.906;73.316;2022-09-09T00:02:23;0.00;0.00;0.00
65973;PMS5003;52729;54.906;73.316;2022-09-09T00:05:29;0.00;0.00;0.00
65973;PMS5003;52729;54.906;73.316;2022-09-09T00:11:52;0.00;0.00;0.00
65973;PMS5003;52729;54.906;73.316;2022-09-09T00:15:03;0.00;0.00;0.00
65973;PMS5003;52729;54.906;73.316;2022-09-09T00:21:19;0.00;0.00;0.00
65973;PMS5003;52729;54.906;73.316;2022-09-09T00:24:44;0.00;0.00;0.00
65973;PMS5003;52729;54.906;73.316;2022-09-09T00:27:47;0.00;0.00;0.00
65973;PMS5003;52729;54.906;73.316;2022-09-09T00:30:54;0.00;0.00;0.00
65973;PMS5003;52729;54.906;73.316;2022-09-09T00:33:58;0.00;0.00;0.00
65973;PMS5003;52729;54.906;73.316;2022-09-09T00:37:01;0.00;0.00;0.00
65973;PMS5003;52729;54.906;73.316;2022-09-09T00:40:07;0.00;0.00;0.00
65973;PMS5003;52729;54.906;73.316;2022-09-09T00:43:30;0.00;0.00;0.00
65973;PMS5003;52729;54.906;73.316;2022-09-09T00:49:49;0.00;0.00;0.00
65973;PMS5003;52729;54.906;73.316;2022-09-09T00:56:14;2.00;0.25;0.00
65973;PMS5003;52729;54.906;73.316;2022-09-09T00:59:25;1.50;1.00;0.00
65973;PMS5003;52729;54.906;73.316;2022-09-09T01:02:40;0.00;0.00;0.00
65973;PMS5003;52729;54.906;73.316;2022-09-09T01:12:24;1.00;1.00;0.00
65973;PMS5003;52729;54.906;73.316;2022-09-09T01:15:34;0.00;0.00;0.00
65973;PMS5003;52729;54.906;73.316;2022-09-09T01:18:36;1.00;0.00;0.00
65973;PMS5003;52729;54.906;73.316;2022-09-09T01:21:48;1.00;1.00;0.00
65973;PMS5003;52729;54.906;73.316;2022-09-09T01:28:11;1.00;1.00;0.00
65973;PMS5003;52729;54.906;73.316;2022-09-09T01:31:18;3.00;3.00;0.00
65973;PMS5003;52729;54.906;73.316;2022-09-09T01:34:23;4.00;4.00;0.00
65973;PMS5003;52729;54.906;73.316;2022-09-09T01:37:27;5.50;5.00;0.00
65973;PMS5003;52729;54.906;73.316;2022-09-09T01:40:28;7.00;6.00;0.00
65973;PMS5003;52729;54.906;73.316;2022-09-09T01:43:31;7.00;6.00;1.75
65973;PMS5003;52729;54.906;73.316;2022-09-09T01:46:32;6.00;6.00;3.00
65973;PMS5003;52729;54.906;73.316;2022-09-09T01:49:35;5.33;5.33;1.00
65973;PMS5003;52729;54.906;73.316;2022-09-09T01:52:44;5.00;4.50;2.00
65973;PMS5003;52729;54.906;73.316;2022-09-09T01:55:56;5.00;4.25;1.00
65973;PMS5003;52729;54.906;73.316;2022-09-09T02:02:36;1.00;1.00;0.00
65973;PMS5003;52729;54.906;73.316;2022-09-09T02:05:51;4.00;3.25;0.00
65973;PMS5003;52729;54.906;73.316;2022-09-09T02:09:02;2.00;2.00;0.00
65973;PMS5003;52729;54.906;73.316;2022-09-09T02:12:15;1.75;1.00;0.00
65973;PMS5003;52729;54.906;73.316;2022-09-09T02:15:42;1.00;1.00;0.00
65973;PMS5003;52729;54.906;73.316;2022-09-09T02:18:55;1.00;0.00;0.00
65973;PMS5003;52729;54.906;73.316;2022-09-09T02:22:05;4.50;1.50;0.25
65973;PMS5003;52729;54.906;73.316;2022-09-09T02:25:17;4.75;4.75;1.00
65973;PMS5003;52729;54.906;73.316;2022-09-09T02:28:20;0.00;0.00;0.00
65973;PMS5003;52729;54.906;73.316;2022-09-09T02:31:28;0.00;0.00;0.00
65973;PMS5003;52729;54.906;73.316;2022-09-09T02:34:36;0.00;0.00;0.00
65973;PMS5003;52729;54.906;73.316;2022-09-09T02:37:51;2.00;1.00;0.00
65973;PMS5003;52729;54.906;73.316;2022-09-09T02:40:53;0.00;0.00;0.00
65973;PMS5003;52729;54.906;73.316;2022-09-09T02:43:59;1.00;0.00;0.00
65973;PMS5003;52729;54.906;73.316;2022-09-09T02:50:39;0.00;0.00;0.00
65973;PMS5003;52729;54.906;73.316;2022-09-09T02:53:50;0.00;0.00;0.00
65973;PMS5003;52729;54.906;73.316;2022-09-09T02:57:02;0.00;0.00;0.00
65973;PMS5003;52729;54.906;73.316;2022-09-09T03:00:10;0.00;0.00;0.00
65973;PMS5003;52729;54.906;73.316;2022-09-09T03:03:12;0.50;0.00;0.00
65973;PMS5003;52729;54.906;73.316;2022-09-09T03:06:14;1.00;1.00;0.00
65973;PMS5003;52729;54.906;73.316;2022-09-09T03:09:18;0.00;0.00;0.00
65973;PMS5003;52729;54.906;73.316;2022-09-09T03:12:20;0.00;0.00;0.00
65973;PMS5003;52729;54.906;73.316;2022-09-09T03:15:26;0.00;0.00;0.00
65973;PMS5003;52729;54.906;73.316;2022-09-09T03:18:37;1.50;1.00;0.00
65973;PMS5003;52729;54.906;73.316;2022-09-09T03:21:39;1.00;0.00;0.00
65973;PMS5003;52729;54.906;73.316;2022-09-09T03:24:40;0.00;0.00;0.00
65973;PMS5003;52729;54.906;73.316;2022-09-09T03:27:41;1.00;0.00;0.00
65973;PMS5003;52729;54.906;73.316;2022-09-09T03:30:42;1.00;1.00;0.00
65973;PMS5003;52729;54.906;73.316;2022-09-09T03:33:44;0.00;0.00;0.00
65973;PMS5003;52729;54.906;73.316;2022-09-09T03:36:53;0.00;0.00;0.00
65973;PMS5003;52729;54.906;73.316;2022-09-09T03:39:58;0.00;0.00;0.00
65973;PMS5003;52729;54.906;73.316;2022-09-09T03:43:00;0.00;0.00;0.00
65973;PMS5003;52729;54.906;73.316;2022-09-09T03:46:01;0.00;0.00;0.00
65973;PMS5003;52729;54.906;73.316;2022-09-09T03:49:03;0.00;0.00;0.00
65973;PMS5003;52729;54.906;73.316;2022-09-09T03:52:06;0.00;0.00;0.00
65973;PMS5003;52729;54.906;73.316;2022-09-09T03:55:09;0.00;0.00;0.00
65973;PMS5003;52729;54.906;73.316;2022-09-09T03:58:12;0.00;0.00;0.00
65973;PMS5003;52729;54.906;73.316;2022-09-09T04:01:13;0.00;0.00;0.00
65973;PMS5003;52729;54.906;73.316;2022-09-09T04:04:22;0.00;0.00;0.00
65973;PMS5003;52729;54.906;73.316;2022-09-09T04:07:23;0.00;0.00;0.00
65973;PMS5003;52729;54.906;73.316;2022-09-09T04:10:24;0.00;0.00;0.00
65973;PMS5003;52729;54.906;73.316;2022-09-09T04:13:26;0.00;0.00;0.00
65973;PMS5003;52729;54.906;73.316;2022-09-09T04:16:38;0.00;0.00;0.00
65973;PMS5003;52729;54.906;73.316;2022-09-09T04:19:40;0.00;0.00;0.00
65973;PMS5003;52729;54.906;73.316;2022-09-09T04:22:52;0.00;0.00;0.00
65973;PMS5003;52729;54.906;73.316;2022-09-09T04:25:55;0.00;0.00;0.00
65973;PMS5003;52729;54.906;73.316;2022-09-09T04:28:57;0.00;0.00;0.00
65973;PMS5003;52729;54.906;73.316;2022-09-09T04:32:08;0.00;0.00;0.00
65973;PMS5003;52729;54.906;73.316;2022-09-09T04:35:15;0.00;0.00;0.00
65973;PMS5003;52729;54.906;73.316;2022-09-09T04:38:16;0.00;0.00;0.00
65973;PMS5003;52729;54.906;73.316;2022-09-09T04:41:18;0.00;0.00;0.00
65973;PMS5003;52729;54.906;73.316;2022-09-09T04:44:23;0.00;0.00;0.00
65973;PMS5003;52729;54.906;73.316;2022-09-09T04:47:24;0.00;0.00;0.00
65973;PMS5003;52729;54.906;73.316;2022-09-09T04:50:31;0.00;0.00;0.00
65973;PMS5003;52729;54.906;73.316;2022-09-09T04:53:38;0.00;0.00;0.00
65973;PMS5003;52729;54.906;73.316;2022-09-09T04:56:52;0.00;0.00;0.00
65973;PMS5003;52729;54.906;73.316;2022-09-09T04:59:53;0.00;0.00;0.00
65973;PMS5003;52729;54.906;73.316;2022-09-09T05:02:57;0.00;0.00;0.00
65973;PMS5003;52729;54.906;73.316;2022-09-09T05:06:09;0.00;0.00;0.00
65973;PMS5003;52729;54.906;73.316;2022-09-09T05:09:20;0.00;0.00;0.00
65973;PMS5003;52729;54.906;73.316;2022-09-09T05:12:22;0.00;0.00;0.00
65973;PMS5003;52729;54.906;73.316;2022-09-09T05:15:25;0.00;0.00;0.00
65973;PMS5003;52729;54.906;73.316;2022-09-09T05:18:26;0.00;0.00;0.00
65973;PMS5003;52729;54.906;73.316;2022-09-09T05:21:29;0.00;0.00;0.00
65973;PMS5003;52729;54.906;73.316;2022-09-09T05:24:31;0.00;0.00;0.00
65973;PMS5003;52729;54.906;73.316;2022-09-09T05:27:34;0.00;0.00;0.00
65973;PMS5003;52729;54.906;73.316;2022-09-09T05:30:46;0.00;0.00;0.00
65973;PMS5003;52729;54.906;73.316;2022-09-09T05:33:47;0.00;0.00;0.00
65973;PMS5003;52729;54.906;73.316;2022-09-09T05:36:50;0.00;0.00;0.00
65973;PMS5003;52729;54.906;73.316;2022-09-09T05:39:55;0.00;0.00;0.00
65973;PMS5003;52729;54.906;73.316;2022-09-09T05:42:59;0.00;0.00;0.00
65973;PMS5003;52729;54.906;73.316;2022-09-09T05:49:05;0.00;0.00;0.00
65973;PMS5003;52729;54.906;73.316;2022-09-09T05:52:10;0.00;0.00;0.00
65973;PMS5003;52729;54.906;73.316;2022-09-09T05:55:11;0.00;0.00;0.00
65973;PMS5003;52729;54.906;73.316;2022-09-09T05:58:18;0.00;0.00;0.00
65973;PMS5003;52729;54.906;73.316;2022-09-09T06:01:23;0.00;0.00;0.00
65973;PMS5003;52729;54.906;73.316;2022-09-09T06:04:34;0.00;0.00;0.00
65973;PMS5003;52729;54.906;73.316;2022-09-09T06:07:37;0.00;0.00;0.00
65973;PMS5003;52729;54.906;73.316;2022-09-09T06:10:38;0.00;0.00;0.00
65973;PMS5003;52729;54.906;73.316;2022-09-09T06:13:39;0.00;0.00;0.00
65973;PMS5003;52729;54.906;73.316;2022-09-09T06:16:51;0.00;0.00;0.00
65973;PMS5003;52729;54.906;73.316;2022-09-09T06:19:56;0.00;0.00;0.00
65973;PMS5003;52729;54.906;73.316;2022-09-09T06:22:57;0.00;0.00;0.00
65973;PMS5003;52729;54.906;73.316;2022-09-09T06:26:05;0.00;0.00;0.00
65973;PMS5003;52729;54.906;73.316;2022-09-09T06:29:09;0.00;0.00;0.00
65973;PMS5003;52729;54.906;73.316;2022-09-09T06:32:10;0.00;0.00;0.00
65973;PMS5003;52729;54.906;73.316;2022-09-09T06:35:16;0.00;0.00;0.00
65973;PMS5003;52729;54.906;73.316;2022-09-09T06:38:22;0.00;0.00;0.00
65973;PMS5003;52729;54.906;73.316;2022-09-09T06:41:29;0.00;0.00;0.00
65973;PMS5003;52729;54.906;73.316;2022-09-09T06:44:37;0.00;0.00;0.00
65973;PMS5003;52729;54.906;73.316;2022-09-09T06:47:41;0.00;0.00;0.00
65973;PMS5003;52729;54.906;73.316;2022-09-09T06:50:42;0.00;0.00;0.00
65973;PMS5003;52729;54.906;73.316;2022-09-09T06:53:44;0.00;0.00;0.00
65973;PMS5003;52729;54.906;73.316;2022-09-09T06:56:47;0.00;0.00;0.00
65973;PMS5003;52729;54.906;73.316;2022-09-09T07:00:06;1.50;1.00;0.00
65973;PMS5003;52729;54.906;73.316;2022-09-09T07:03:09;0.25;0.00;0.00
65973;PMS5003;52729;54.906;73.316;2022-09-09T07:06:20;0.00;0.00;0.00
65973;PMS5003;52729;54.906;73.316;2022-09-09T07:09:31;0.00;0.00;0.00
65973;PMS5003;52729;54.906;73.316;2022-09-09T07:12:33;0.00;0.00;0.00
65973;PMS5003;52729;54.906;73.316;2022-09-09T07:15:35;0.00;0.00;0.00
65973;PMS5003;52729;54.906;73.316;2022-09-09T07:18:40;0.00;0.00;0.00
65973;PMS5003;52729;54.906;73.316;2022-09-09T07:21:52;0.00;0.00;0.00
65973;PMS5003;52729;54.906;73.316;2022-09-09T07:25:02;0.00;0.00;0.00
65973;PMS5003;52729;54.906;73.316;2022-09-09T07:28:04;0.00;0.00;0.00
65973;PMS5003;52729;54.906;73.316;2022-09-09T07:31:06;0.00;0.00;0.00
65973;PMS5003;52729;54.906;73.316;2022-09-09T07:34:15;0.00;0.00;0.00
65973;PMS5003;52729;54.906;73.316;2022-09-09T07:37:16;0.00;0.00;0.00
65973;PMS5003;52729;54.906;73.316;2022-09-09T07:40:19;0.00;0.00;0.00
65973;PMS5003;52729;54.906;73.316;2022-09-09T07:43:32;0.00;0.00;0.00
65973;PMS5003;52729;54.906;73.316;2022-09-09T07:46:40;0.00;0.00;0.00
65973;PMS5003;52729;54.906;73.316;2022-09-09T07:49:54;0.00;0.00;0.00
65973;PMS5003;52729;54.906;73.316;2022-09-09T07:53:00;0.00;0.00;0.00
65973;PMS5003;52729;54.906;73.316;2022-09-09T07:56:15;0.00;0.00;0.00
65973;PMS5003;52729;54.906;73.316;2022-09-09T07:59:19;0.00;0.00;0.00
65973;PMS5003;52729;54.906;73.316;2022-09-09T08:02:24;0.00;0.00;0.00
65973;PMS5003;52729;54.906;73.316;2022-09-09T08:05:30;0.00;0.00;0.00
65973;PMS5003;52729;54.906;73.316;2022-09-09T08:08:31;0.00;0.00;0.00
65973;PMS5003;52729;54.906;73.316;2022-09-09T08:11:43;0.00;0.00;0.00
65973;PMS5003;52729;54.906;73.316;2022-09-09T08:14:45;0.00;0.00;0.00
65973;PMS5003;52729;54.906;73.316;2022-09-09T08:17:46;0.00;0.00;0.00
65973;PMS5003;52729;54.906;73.316;2022-09-09T08:20:47;0.00;0.00;0.00
65973;PMS5003;52729;54.906;73.316;2022-09-09T08:23:54;0.00;0.00;0.00
65973;PMS5003;52729;54.906;73.316;2022-09-09T08:26:56;0.00;0.00;0.00
65973;PMS5003;52729;54.906;73.316;2022-09-09T08:29:58;0.00;0.00;0.00
65973;PMS5003;52729;54.906;73.316;2022-09-09T08:32:59;0.00;0.00;0.00
65973;PMS5003;52729;54.906;73.316;2022-09-09T08:36:06;0.00;0.00;0.00
65973;PMS5003;52729;54.906;73.316;2022-09-09T08:39:15;0.00;0.00;0.00
65973;PMS5003;52729;54.906;73.316;2022-09-09T08:42:21;0.00;0.00;0.00
65973;PMS5003;52729;54.906;73.316;2022-09-09T08:45:34;0.00;0.00;0.00
65973;PMS5003;52729;54.906;73.316;2022-09-09T08:49:01;0.00;0.00;0.00
65973;PMS5003;52729;54.906;73.316;2022-09-09T08:52:06;0.00;0.00;0.00
65973;PMS5003;52729;54.906;73.316;2022-09-09T08:58:33;0.00;0.00;0.00
65973;PMS5003;52729;54.906;73.316;2022-09-09T09:01:50;0.00;0.00;0.00
65973;PMS5003;52729;54.906;73.316;2022-09-09T09:05:09;0.00;0.00;0.00
65973;PMS5003;52729;54.906;73.316;2022-09-09T09:08:28;1.00;1.00;0.00
65973;PMS5003;52729;54.906;73.316;2022-09-09T09:11:38;0.50;0.00;0.00
65973;PMS5003;52729;54.906;73.316;2022-09-09T09:14:40;0.00;0.00;0.00
65973;PMS5003;52729;54.906;73.316;2022-09-09T09:17:44;1.50;0.50;0.00
65973;PMS5003;52729;54.906;73.316;2022-09-09T09:24:09;0.75;0.00;0.00
65973;PMS5003;52729;54.906;73.316;2022-09-09T09:27:20;0.00;0.00;0.00
65973;PMS5003;52729;54.906;73.316;2022-09-09T09:30:39;0.00;0.00;0.00
65973;PMS5003;52729;54.906;73.316;2022-09-09T09:33:46;0.00;0.00;0.00
65973;PMS5003;52729;54.906;73.316;2022-09-09T09:36:56;0.00;0.00;0.00
65973;PMS5003;52729;54.906;73.316;2022-09-09T09:40:10;0.50;0.00;0.00
65973;PMS5003;52729;54.906;73.316;2022-09-09T09:43:19;0.00;0.00;0.00
65973;PMS5003;52729;54.906;73.316;2022-09-09T09:46:26;1.00;0.00;0.00
65973;PMS5003;52729;54.906;73.316;2022-09-09T09:49:31;0.00;0.00;0.00
65973;PMS5003;52729;54.906;73.316;2022-09-09T09:52:52;0.00;0.00;0.00
65973;PMS5003;52729;54.906;73.316;2022-09-09T09:58:56;0.50;0.00;0.00
65973;PMS5003;52729;54.906;73.316;2022-09-09T10:05:35;0.00;0.00;0.00
65973;PMS5003;52729;54.906;73.316;2022-09-09T10:08:45;0.00;0.00;0.00
65973;PMS5003;52729;54.906;73.316;2022-09-09T10:12:08;0.00;0.00;0.00
65973;PMS5003;52729;54.906;73.316;2022-09-09T10:47:20;3.00;2.50;0.00
65973;PMS5003;52729;54.906;73.316;2022-09-09T10:56:33;2.00;1.00;0.00
65973;PMS5003;52729;54.906;73.316;2022-09-09T10:59:37;3.00;2.00;0.00
65973;PMS5003;52729;54.906;73.316;2022-09-09T11:03:02;3.00;1.00;0.00
65973;PMS5003;52729;54.906;73.316;2022-09-09T11:06:07;8.00;8.00;3.50
65973;PMS5003;52729;54.906;73.316;2022-09-09T11:09:17;4.75;3.25;2.00
65973;PMS5003;52729;54.906;73.316;2022-09-09T11:12:25;4.00;3.00;1.00
65973;PMS5003;52729;54.906;73.316;2022-09-09T11:15:30;5.00;4.00;1.75
65973;PMS5003;52729;54.906;73.316;2022-09-09T11:18:32;2.00;2.00;0.00
65973;PMS5003;52729;54.906;73.316;2022-09-09T11:21:41;1.00;1.00;0.00
65973;PMS5003;52729;54.906;73.316;2022-09-09T11:34:26;1.00;1.00;0.00
65973;PMS5003;52729;54.906;73.316;2022-09-09T11:40:56;1.00;1.00;0.00
65973;PMS5003;52729;54.906;73.316;2022-09-09T11:44:08;0.75;0.75;0.00
65973;PMS5003;52729;54.906;73.316;2022-09-09T11:47:26;1.50;1.50;0.00
65973;PMS5003;52729;54.906;73.316;2022-09-09T11:50:32;2.00;0.00;0.00
65973;PMS5003;52729;54.906;73.316;2022-09-09T11:53:47;2.00;0.25;0.00
65973;PMS5003;52729;54.906;73.316;2022-09-09T11:56:49;2.00;1.50;0.00
65973;PMS5003;52729;54.906;73.316;2022-09-09T11:59:50;1.00;1.00;0.00
65973;PMS5003;52729;54.906;73.316;2022-09-09T12:02:53;0.00;0.00;0.00
65973;PMS5003;52729;54.906;73.316;2022-09-09T12:05:54;0.00;0.00;0.00
65973;PMS5003;52729;54.906;73.316;2022-09-09T12:08:58;3.25;3.00;0.00
65973;PMS5003;52729;54.906;73.316;2022-09-09T12:15:18;8.75;8.50;3.50
65973;PMS5003;52729;54.906;73.316;2022-09-09T12:18:22;2.25;2.25;1.00
65973;PMS5003;52729;54.906;73.316;2022-09-09T12:22:07;1.00;1.00;0.00
65973;PMS5003;52729;54.906;73.316;2022-09-09T12:25:08;0.00;0.00;0.00
65973;PMS5003;52729;54.906;73.316;2022-09-09T12:35:16;1.00;1.00;0.00
65973;PMS5003;52729;54.906;73.316;2022-09-09T12:38:32;2.00;2.00;0.00
65973;PMS5003;52729;54.906;73.316;2022-09-09T12:41:34;2.00;1.00;0.00
65973;PMS5003;52729;54.906;73.316;2022-09-09T12:44:36;2.00;1.00;0.00
65973;PMS5003;52729;54.906;73.316;2022-09-09T12:47:38;2.00;1.00;0.00
65973;PMS5003;52729;54.906;73.316;2022-09-09T12:50:51;2.00;1.00;0.00
65973;PMS5003;52729;54.906;73.316;2022-09-09T12:54:03;3.00;1.00;0.00
65973;PMS5003;52729;54.906;73.316;2022-09-09T12:57:05;2.00;1.25;0.00
65973;PMS5003;52729;54.906;73.316;2022-09-09T13:00:07;1.00;1.00;0.00
65973;PMS5003;52729;54.906;73.316;2022-09-09T13:03:19;3.00;2.25;0.00
65973;PMS5003;52729;54.906;73.316;2022-09-09T13:06:22;2.00;1.00;0.00
65973;PMS5003;52729;54.906;73.316;2022-09-09T13:09:24;3.00;3.00;0.00
65973;PMS5003;52729;54.906;73.316;2022-09-09T13:12:31;3.75;3.75;0.00
65973;PMS5003;52729;54.906;73.316;2022-09-09T13:15:48;18.00;17.25;9.50
65973;PMS5003;52729;54.906;73.316;2022-09-09T13:18:54;17.00;15.00;5.50
65973;PMS5003;52729;54.906;73.316;2022-09-09T13:21:56;7.00;4.75;1.00
65973;PMS5003;52729;54.906;73.316;2022-09-09T13:28:04;2.00;2.00;0.00
65973;PMS5003;52729;54.906;73.316;2022-09-09T13:31:18;4.75;4.75;0.00
65973;PMS5003;52729;54.906;73.316;2022-09-09T13:34:27;5.25;4.50;0.00
65973;PMS5003;52729;54.906;73.316;2022-09-09T13:37:38;4.50;4.25;1.25
65973;PMS5003;52729;54.906;73.316;2022-09-09T13:43:55;6.00;5.75;3.00
65973;PMS5003;52729;54.906;73.316;2022-09-09T13:53:23;8.00;7.50;4.50
65973;PMS5003;52729;54.906;73.316;2022-09-09T13:56:24;10.00;9.00;5.00
65973;PMS5003;52729;54.906;73.316;2022-09-09T13:59:26;14.00;10.25;6.25
65973;PMS5003;52729;54.906;73.316;2022-09-09T14:02:27;21.75;21.25;12.00
65973;PMS5003;52729;54.906;73.316;2022-09-09T14:05:30;29.67;28.33;18.00
65973;PMS5003;52729;54.906;73.316;2022-09-09T14:08:32;39.50;33.75;21.50
65973;PMS5003;52729;54.906;73.316;2022-09-09T14:11:38;55.50;45.00;29.50
65973;PMS5003;52729;54.906;73.316;2022-09-09T14:14:44;57.00;46.00;31.00
65973;PMS5003;52729;54.906;73.316;2022-09-09T14:17:45;59.75;47.00;32.00
65973;PMS5003;52729;54.906;73.316;2022-09-09T14:20:51;61.00;48.00;33.00
65973;PMS5003;52729;54.906;73.316;2022-09-09T14:23:52;56.50;46.00;30.50
65973;PMS5003;52729;54.906;73.316;2022-09-09T14:26:58;55.00;44.50;29.50
65973;PMS5003;52729;54.906;73.316;2022-09-09T14:29:59;53.50;44.00;29.50
65973;PMS5003;52729;54.906;73.316;2022-09-09T14:33:01;57.00;45.75;31.25
65973;PMS5003;52729;54.906;73.316;2022-09-09T14:36:03;60.50;49.50;33.00
65973;PMS5003;52729;54.906;73.316;2022-09-09T14:39:04;60.50;48.50;32.00
65973;PMS5003;52729;54.906;73.316;2022-09-09T14:42:10;57.00;46.00;31.00
65973;PMS5003;52729;54.906;73.316;2022-09-09T14:45:11;60.00;48.00;31.00
65973;PMS5003;52729;54.906;73.316;2022-09-09T14:48:23;54.50;43.50;27.50
65973;PMS5003;52729;54.906;73.316;2022-09-09T14:51:24;56.25;46.25;30.50
65973;PMS5003;52729;54.906;73.316;2022-09-09T14:54:38;49.25;39.50;26.00
65973;PMS5003;52729;54.906;73.316;2022-09-09T14:57:39;51.33;42.00;27.00
65973;PMS5003;52729;54.906;73.316;2022-09-09T15:00:51;57.25;46.25;31.00
65973;PMS5003;52729;54.906;73.316;2022-09-09T15:03:57;45.75;37.50;25.25
65973;PMS5003;52729;54.906;73.316;2022-09-09T15:07:09;42.25;37.00;24.00
65973;PMS5003;52729;54.906;73.316;2022-09-09T15:10:11;36.00;32.00;22.00
65973;PMS5003;52729;54.906;73.316;2022-09-09T15:13:18;40.50;34.00;23.50
65973;PMS5003;52729;54.906;73.316;2022-09-09T15:16:19;52.25;41.25;29.00
65973;PMS5003;52729;54.906;73.316;2022-09-09T15:19:21;47.25;39.25;26.25
65973;PMS5003;52729;54.906;73.316;2022-09-09T15:22:22;37.50;31.25;20.50
65973;PMS5003;52729;54.906;73.316;2022-09-09T15:25:25;39.50;33.25;21.75
65973;PMS5003;52729;54.906;73.316;2022-09-09T15:28:26;38.00;31.50;20.50
65973;PMS5003;52729;54.906;73.316;2022-09-09T15:31:32;42.50;36.00;23.75
65973;PMS5003;52729;54.906;73.316;2022-09-09T15:34:33;42.67;36.00;24.00
65973;PMS5003;52729;54.906;73.316;2022-09-09T15:37:34;46.33;36.33;25.00
65973;PMS5003;52729;54.906;73.316;2022-09-09T15:40:35;45.50;37.00;25.00
65973;PMS5003;52729;54.906;73.316;2022-09-09T15:43:36;48.00;40.00;26.00
65973;PMS5003;52729;54.906;73.316;2022-09-09T15:46:50;51.00;41.00;27.00
65973;PMS5003;52729;54.906;73.316;2022-09-09T15:49:52;51.25;41.25;27.00
65973;PMS5003;52729;54.906;73.316;2022-09-09T15:52:53;48.50;40.00;26.00
65973;PMS5003;52729;54.906;73.316;2022-09-09T15:55:54;43.50;36.50;23.50
65973;PMS5003;52729;54.906;73.316;2022-09-09T15:59:06;45.50;36.50;24.00
65973;PMS5003;52729;54.906;73.316;2022-09-09T16:02:08;46.50;39.00;26.00
65973;PMS5003;52729;54.906;73.316;2022-09-09T16:05:13;47.25;38.75;24.50
65973;PMS5003;52729;54.906;73.316;2022-09-09T16:08:13;47.00;38.00;24.00
65973;PMS5003;52729;54.906;73.316;2022-09-09T16:11:16;44.50;35.50;24.00
65973;PMS5003;52729;54.906;73.316;2022-09-09T16:14:17;47.00;37.00;24.00
65973;PMS5003;52729;54.906;73.316;2022-09-09T16:17:19;44.00;35.50;23.50
65973;PMS5003;52729;54.906;73.316;2022-09-09T16:20:21;44.50;37.25;23.50
65973;PMS5003;52729;54.906;73.316;2022-09-09T16:23:22;44.00;37.00;23.00
65973;PMS5003;52729;54.906;73.316;2022-09-09T16:26:23;47.75;38.00;24.25
65973;PMS5003;52729;54.906;73.316;2022-09-09T16:29:34;45.50;36.25;24.00
65973;PMS5003;52729;54.906;73.316;2022-09-09T16:32:41;46.00;36.25;23.00
65973;PMS5003;52729;54.906;73.316;2022-09-09T16:35:52;45.50;37.50;23.50
65973;PMS5003;52729;54.906;73.316;2022-09-09T16:38:55;49.25;39.50;25.00
65973;PMS5003;52729;54.906;73.316;2022-09-09T16:42:03;42.50;35.50;22.50
65973;PMS5003;52729;54.906;73.316;2022-09-09T16:45:05;50.25;41.50;26.00
65973;PMS5003;52729;54.906;73.316;2022-09-09T16:48:18;52.25;41.50;27.00
65973;PMS5003;52729;54.906;73.316;2022-09-09T16:51:29;52.00;42.00;26.00
65973;PMS5003;52729;54.906;73.316;2022-09-09T16:54:31;50.50;40.50;26.00
65973;PMS5003;52729;54.906;73.316;2022-09-09T16:57:31;49.00;40.00;25.00
65973;PMS5003;52729;54.906;73.316;2022-09-09T17:00:33;49.00;39.00;25.33
65973;PMS5003;52729;54.906;73.316;2022-09-09T17:03:34;46.00;37.50;24.50
65973;PMS5003;52729;54.906;73.316;2022-09-09T17:06:45;45.00;37.00;24.00
65973;PMS5003;52729;54.906;73.316;2022-09-09T17:09:47;44.75;36.50;23.25
65973;PMS5003;52729;54.906;73.316;2022-09-09T17:12:48;43.00;36.00;23.75
65973;PMS5003;52729;54.906;73.316;2022-09-09T17:15:54;44.25;35.50;23.00
65973;PMS5003;52729;54.906;73.316;2022-09-09T17:18:55;45.00;37.00;24.33
65973;PMS5003;52729;54.906;73.316;2022-09-09T17:22:06;47.00;38.50;24.00
65973;PMS5003;52729;54.906;73.316;2022-09-09T17:25:07;44.67;36.33;22.00
65973;PMS5003;52729;54.906;73.316;2022-09-09T17:28:08;45.00;37.00;23.50
65973;PMS5003;52729;54.906;73.316;2022-09-09T17:31:16;43.00;34.00;23.00
65973;PMS5003;52729;54.906;73.316;2022-09-09T17:34:17;43.50;35.25;23.50
65973;PMS5003;52729;54.906;73.316;2022-09-09T17:37:18;44.00;35.00;23.00
65973;PMS5003;52729;54.906;73.316;2022-09-09T17:40:20;44.50;36.00;23.75
65973;PMS5003;52729;54.906;73.316;2022-09-09T17:43:26;46.50;38.50;24.50
65973;PMS5003;52729;54.906;73.316;2022-09-09T17:46:28;45.25;37.00;24.00
65973;PMS5003;52729;54.906;73.316;2022-09-09T17:49:34;42.50;35.50;23.00
65973;PMS5003;52729;54.906;73.316;2022-09-09T17:52:35;45.50;38.50;24.00
65973;PMS5003;52729;54.906;73.316;2022-09-09T17:55:37;44.00;37.00;24.25
65973;PMS5003;52729;54.906;73.316;2022-09-09T17:58:38;44.33;37.33;25.00
65973;PMS5003;52729;54.906;73.316;2022-09-09T18:01:41;46.00;37.00;23.00
65973;PMS5003;52729;54.906;73.316;2022-09-09T18:04:44;47.00;38.75;25.00
65973;PMS5003;52729;54.906;73.316;2022-09-09T18:07:55;41.00;35.50;23.00
65973;PMS5003;52729;54.906;73.316;2022-09-09T18:10:56;45.00;37.00;24.00
65973;PMS5003;52729;54.906;73.316;2022-09-09T18:14:08;47.00;38.50;25.00
65973;PMS5003;52729;54.906;73.316;2022-09-09T18:17:20;44.25;37.50;23.75
65973;PMS5003;52729;54.906;73.316;2022-09-09T18:20:21;44.33;37.00;24.33
65973;PMS5003;52729;54.906;73.316;2022-09-09T18:23:22;49.25;39.00;25.50
65973;PMS5003;52729;54.906;73.316;2022-09-09T18:26:34;51.00;40.00;27.00
65973;PMS5003;52729;54.906;73.316;2022-09-09T18:29:36;52.25;41.50;27.00
65973;PMS5003;52729;54.906;73.316;2022-09-09T18:32:37;54.33;44.00;28.00
65973;PMS5003;52729;54.906;73.316;2022-09-09T18:35:38;54.00;43.00;28.00
65973;PMS5003;52729;54.906;73.316;2022-09-09T18:38:44;54.00;42.00;27.00
65973;PMS5003;52729;54.906;73.316;2022-09-09T18:41:47;52.50;41.75;27.00
65973;PMS5003;52729;54.906;73.316;2022-09-09T18:44:58;53.50;43.25;27.50
65973;PMS5003;52729;54.906;73.316;2022-09-09T18:47:59;52.33;43.00;28.00
65973;PMS5003;52729;54.906;73.316;2022-09-09T18:51:08;52.75;42.75;27.25
65973;PMS5003;52729;54.906;73.316;2022-09-09T18:54:11;55.50;44.25;28.00
65973;PMS5003;52729;54.906;73.316;2022-09-09T18:57:22;54.50;43.00;27.50
65973;PMS5003;52729;54.906;73.316;2022-09-09T19:00:23;53.25;42.00;27.00
65973;PMS5003;52729;54.906;73.316;2022-09-09T19:03:25;53.50;42.00;26.50
65973;PMS5003;52729;54.906;73.316;2022-09-09T19:06:32;51.25;41.75;27.00
65973;PMS5003;52729;54.906;73.316;2022-09-09T19:09:33;48.50;39.25;26.00
65973;PMS5003;52729;54.906;73.316;2022-09-09T19:12:36;50.00;40.75;26.75
65973;PMS5003;52729;54.906;73.316;2022-09-09T19:15:37;50.00;39.50;26.00
65973;PMS5003;52729;54.906;73.316;2022-09-09T19:18:40;51.00;42.00;27.00
65973;PMS5003;52729;54.906;73.316;2022-09-09T19:21:47;49.25;41.00;26.00
65973;PMS5003;52729;54.906;73.316;2022-09-09T19:24:53;46.50;38.75;25.00
65973;PMS5003;52729;54.906;73.316;2022-09-09T19:27:55;50.50;40.00;25.25
65973;PMS5003;52729;54.906;73.316;2022-09-09T19:31:05;46.50;38.00;24.50
65973;PMS5003;52729;54.906;73.316;2022-09-09T19:34:06;46.00;38.25;24.50
65973;PMS5003;52729;54.906;73.316;2022-09-09T19:37:13;47.00;37.25;24.00
65973;PMS5003;52729;54.906;73.316;2022-09-09T19:40:14;47.00;37.00;24.00